createdAt,value
2023-04-01T00:01:14.966Z,100591.41
2023-04-01T00:03:43.726Z,100595.59
2023-04-01T00:06:16.430Z,100588.75
2023-04-01T00:08:45.455Z,100597.66
2023-04-01T00:11:14.153Z,100600.44
2023-04-01T00:13:45.038Z,100605.53
2023-04-01T00:16:21.770Z,100597.66
2023-04-01T00:18:52.373Z,100597.34
2023-04-01T00:21:21.640Z,100601.94
2023-04-01T00:23:49.920Z,100603.66
2023-04-01T00:26:20.353Z,100610.63
2023-04-01T00:28:50.403Z,100613.25
2023-04-01T00:31:19.000Z,100613.59
2023-04-01T00:33:47.495Z,100630.47
2023-04-01T00:36:18.101Z,100623.09
2023-04-01T00:38:47.952Z,100635.19
2023-04-01T00:41:18.179Z,100645.03
2023-04-01T00:43:48.607Z,100646.94
2023-04-01T00:46:19.151Z,100657.53
2023-04-01T00:48:50.749Z,100659.09
2023-04-01T00:51:23.429Z,100653.03
2023-04-01T00:53:54.801Z,100673.13
2023-04-01T00:56:28.194Z,100665.16
2023-04-01T00:59:02.571Z,100668.00
2023-04-01T01:01:33.059Z,100672.88
2023-04-01T01:04:02.699Z,100675.31
2023-04-01T01:06:46.324Z,100669.81
2023-04-01T01:09:28.612Z,100684.78
2023-04-01T01:12:04.684Z,100681.53
2023-04-01T01:14:48.017Z,100693.50
2023-04-01T01:17:27.032Z,100686.00
2023-04-01T01:20:34.276Z,100692.19
2023-04-01T01:23:51.712Z,100693.00
2023-04-01T01:26:44.794Z,100705.72
2023-04-01T01:29:31.720Z,100703.72
2023-04-01T01:32:09.435Z,100696.84
2023-04-01T01:34:42.794Z,100710.22
2023-04-01T01:37:15.751Z,100719.09
2023-04-01T01:39:46.356Z,100704.88
2023-04-01T01:42:18.293Z,100721.13
2023-04-01T01:44:49.833Z,100716.94
2023-04-01T01:47:19.300Z,100718.16
2023-04-01T01:49:48.054Z,100726.41
2023-04-01T01:52:19.630Z,100718.16
2023-04-01T01:54:51.607Z,100719.19
2023-04-01T01:57:26.059Z,100721.38
2023-04-01T01:59:57.177Z,100723.25
2023-04-01T02:02:26.970Z,100717.97
2023-04-01T02:04:59.018Z,100724.84
2023-04-01T02:07:33.118Z,100726.31
2023-04-01T02:10:01.818Z,100734.75
2023-04-01T02:12:31.557Z,100738.72
2023-04-01T02:15:06.450Z,100734.13
2023-04-01T02:17:37.948Z,100738.53
2023-04-01T02:20:11.201Z,100732.94
2023-04-01T02:22:43.763Z,100733.13
2023-04-01T02:25:15.435Z,100739.72
2023-04-01T02:27:46.402Z,100735.66
2023-04-01T02:30:16.063Z,100742.16
2023-04-01T02:32:45.377Z,100760.59
2023-04-01T02:35:17.218Z,100736.91
2023-04-01T02:37:49.836Z,100751.16
2023-04-01T02:40:19.046Z,100752.97
2023-04-01T02:42:47.375Z,100761.09
2023-04-01T02:45:16.796Z,100764.22
2023-04-01T02:47:44.964Z,100758.38
2023-04-01T02:50:13.294Z,100765.63
2023-04-01T02:52:41.494Z,100767.94
2023-04-01T02:55:11.788Z,100769.66
2023-04-01T02:57:39.911Z,100777.16
2023-04-01T03:00:12.351Z,100782.88
2023-04-01T03:02:40.923Z,100792.72
2023-04-01T03:05:09.871Z,100783.94
2023-04-01T03:07:38.102Z,100788.69
2023-04-01T03:10:07.347Z,100782.91
2023-04-01T03:12:36.896Z,100788.84
2023-04-01T03:15:11.009Z,100801.81
2023-04-01T03:17:40.011Z,100800.63
2023-04-01T03:20:11.847Z,100798.47
2023-04-01T03:22:42.889Z,100800.16
2023-04-01T03:25:12.656Z,100809.25
2023-04-01T03:27:42.366Z,100805.63
2023-04-01T03:30:11.773Z,100814.25
2023-04-01T03:32:40.164Z,100809.13
2023-04-01T03:35:10.727Z,100810.63
2023-04-01T03:37:39.366Z,100822.84
2023-04-01T03:40:08.608Z,100805.91
2023-04-01T03:42:37.199Z,100824.22
2023-04-01T03:45:08.166Z,100824.66
2023-04-01T03:47:36.998Z,100833.84
2023-04-01T03:50:05.557Z,100836.34
2023-04-01T03:52:33.791Z,100846.44
2023-04-01T03:55:02.123Z,100835.53
2023-04-01T03:57:33.108Z,100836.06
2023-04-01T04:00:01.231Z,100833.91
2023-04-01T04:02:31.195Z,100833.56
2023-04-01T04:04:59.472Z,100837.34
2023-04-01T04:07:28.036Z,100853.28
2023-04-01T04:09:56.733Z,100809.13
2023-04-01T04:12:25.940Z,100842.66
2023-04-01T04:14:54.190Z,100859.03
2023-04-01T04:17:22.627Z,100853.69
2023-04-01T04:19:52.152Z,100846.03
2023-04-01T04:22:20.647Z,100861.97
2023-04-01T04:24:49.447Z,100864.69
2023-04-01T04:27:17.786Z,100865.72
2023-04-01T04:29:46.076Z,100856.78
2023-04-01T04:32:14.466Z,100853.25
2023-04-01T04:34:42.834Z,100877.94
2023-04-01T04:37:12.699Z,100877.81
2023-04-01T04:39:41.330Z,100880.25
2023-04-01T04:42:09.400Z,100888.00
2023-04-01T04:44:37.826Z,100885.78
2023-04-01T04:47:06.249Z,100895.56
2023-04-01T04:49:34.510Z,100899.53
2023-04-01T04:52:02.646Z,100899.09
2023-04-01T04:54:32.703Z,100912.47
2023-04-01T04:57:01.328Z,100903.41
2023-04-01T04:59:29.487Z,100904.69
2023-04-01T05:01:58.054Z,100911.84
2023-04-01T05:04:26.501Z,100909.03
2023-04-01T05:06:54.854Z,100915.22
2023-04-01T05:09:23.422Z,100916.03
2023-04-01T05:11:53.272Z,100918.63
2023-04-01T05:14:21.387Z,100858.34
2023-04-01T05:16:50.514Z,100918.66
2023-04-01T05:19:18.688Z,100937.16
2023-04-01T05:21:46.845Z,100944.31
2023-04-01T05:24:15.582Z,100934.72
2023-04-01T05:26:43.759Z,100940.69
2023-04-01T05:29:13.485Z,100950.63
2023-04-01T05:31:41.661Z,100947.53
2023-04-01T05:34:09.743Z,100959.19
2023-04-01T05:36:37.906Z,100954.69
2023-04-01T05:39:06.437Z,100962.97
2023-04-01T05:41:37.368Z,100963.72
2023-04-01T05:44:06.546Z,100977.31
2023-04-01T05:46:36.361Z,100964.25
2023-04-01T05:49:04.536Z,100978.16
2023-04-01T05:51:32.657Z,100978.88
2023-04-01T05:54:01.012Z,100971.78
2023-04-01T05:56:29.422Z,100973.22
2023-04-01T05:58:58.006Z,100947.03
2023-04-01T06:01:28.829Z,100983.13
2023-04-01T06:03:58.724Z,100965.91
2023-04-01T06:06:29.293Z,100993.00
2023-04-01T06:09:01.689Z,100988.47
2023-04-01T06:11:39.984Z,100996.06
2023-04-01T06:14:18.247Z,100997.03
2023-04-01T06:17:02.925Z,100993.63
2023-04-01T06:19:42.950Z,101000.09
2023-04-01T06:22:45.009Z,101003.69
2023-04-01T06:25:26.717Z,101013.97
2023-04-01T06:28:09.173Z,101013.88
2023-04-01T06:30:45.395Z,101009.78
2023-04-01T06:33:43.762Z,101012.88
2023-04-01T06:36:41.420Z,101018.31
2023-04-01T06:39:31.982Z,101020.38
2023-04-01T06:42:33.018Z,101026.16
2023-04-01T06:45:11.399Z,101003.13
2023-04-01T06:47:53.234Z,101028.13
2023-04-01T06:50:29.222Z,101025.16
2023-04-01T06:53:08.592Z,101026.66
2023-04-01T06:55:42.478Z,101039.00
2023-04-01T06:58:21.828Z,101030.25
2023-04-01T07:00:53.217Z,101032.41
2023-04-01T07:03:25.536Z,101038.53
2023-04-01T07:05:55.516Z,101038.25
2023-04-01T07:08:28.050Z,101045.56
2023-04-01T07:10:59.426Z,101042.66
2023-04-01T07:13:33.218Z,101043.91
2023-04-01T07:16:09.584Z,101048.00
2023-04-01T07:18:44.030Z,101055.13
2023-04-01T07:21:28.119Z,101055.63
2023-04-01T07:24:04.692Z,101053.78
2023-04-01T07:26:33.642Z,101064.19
2023-04-01T07:29:02.238Z,101067.94
2023-04-01T07:31:53.119Z,101062.44
2023-04-01T07:34:27.293Z,101081.47
2023-04-01T07:37:03.599Z,101089.03
2023-04-01T07:39:43.840Z,101092.09
2023-04-01T07:42:20.575Z,101089.28
2023-04-01T07:44:59.094Z,101087.34
2023-04-01T07:47:43.268Z,101095.31
2023-04-01T07:50:23.508Z,101085.50
2023-04-01T07:53:00.099Z,101091.06
2023-04-01T07:55:36.573Z,101092.03
2023-04-01T07:58:13.923Z,101049.97
2023-04-01T08:00:47.110Z,101102.34
2023-04-01T08:03:36.007Z,101101.06
2023-04-01T08:06:11.569Z,101093.31
2023-04-01T08:08:53.661Z,101069.53
2023-04-01T08:11:37.547Z,101112.13
2023-04-01T08:14:15.731Z,101110.03
2023-04-01T08:16:49.278Z,101079.78
2023-04-01T08:19:31.880Z,101113.16
2023-04-01T08:22:05.610Z,101111.16
2023-04-01T08:24:47.591Z,101118.28
2023-04-01T08:27:23.893Z,101099.16
2023-04-01T08:29:58.397Z,101100.00
2023-04-01T08:32:31.497Z,101120.31
2023-04-01T08:35:12.022Z,101120.94
2023-04-01T08:37:43.441Z,101114.25
2023-04-01T08:40:56.215Z,101117.72
2023-04-01T08:43:37.804Z,101116.88
2023-04-01T08:46:22.179Z,101135.47
2023-04-01T08:49:12.934Z,101095.78
2023-04-01T08:52:21.018Z,101120.81
2023-04-01T08:55:03.985Z,101127.78
2023-04-01T08:57:44.614Z,101118.50
2023-04-01T09:00:31.742Z,101130.94
2023-04-01T09:03:25.580Z,101125.59
2023-04-01T09:06:21.923Z,101128.19
2023-04-01T09:09:03.521Z,101124.50
2023-04-01T09:11:48.184Z,101121.06
2023-04-01T09:14:51.422Z,101137.03
2023-04-01T09:17:41.344Z,101133.09
2023-04-01T09:20:41.550Z,101133.94
2023-04-01T09:23:29.300Z,101129.25
2023-04-01T09:26:11.138Z,101130.97
2023-04-01T09:28:48.749Z,101121.41
2023-04-01T09:31:34.492Z,101122.50
2023-04-01T09:34:24.908Z,101139.19
2023-04-01T09:37:03.137Z,101143.94
2023-04-01T09:39:39.551Z,101136.16
2023-04-01T09:42:32.077Z,101138.53
2023-04-01T09:45:07.874Z,101137.44
2023-04-01T09:47:58.981Z,101132.41
2023-04-01T09:50:36.692Z,101099.03
2023-04-01T09:53:17.166Z,101127.34
2023-04-01T09:56:22.268Z,101139.28
2023-04-01T09:59:27.772Z,101130.16
2023-04-01T10:02:57.403Z,101111.47
2023-04-01T10:06:05.634Z,101148.78
2023-04-01T10:09:13.022Z,101140.09
2023-04-01T10:12:20.191Z,101145.22
2023-04-01T10:15:22.040Z,101148.78
2023-04-01T10:18:25.524Z,101143.75
2023-04-01T10:21:22.598Z,101154.34
2023-04-01T10:24:22.716Z,101152.97
2023-04-01T10:27:18.701Z,101148.59
2023-04-01T10:30:19.781Z,101149.72
2023-04-01T10:33:17.285Z,101147.16
2023-04-01T10:36:39.028Z,101147.47
2023-04-01T10:39:35.912Z,101153.66
2023-04-01T10:42:42.027Z,101150.13
2023-04-01T10:45:44.992Z,101168.34
2023-04-01T10:48:25.854Z,101165.38
2023-04-01T10:51:10.474Z,101151.47
2023-04-01T10:53:57.747Z,101164.88
2023-04-01T10:56:42.772Z,101167.72
2023-04-01T10:59:54.005Z,101131.50
2023-04-01T11:03:02.103Z,101178.63
2023-04-01T11:06:33.374Z,101177.91
2023-04-01T11:09:38.933Z,101173.91
2023-04-01T11:12:51.084Z,101176.66
2023-04-01T11:16:00.767Z,101177.91
2023-04-01T11:19:28.449Z,101177.69
2023-04-01T11:22:16.622Z,101180.53
2023-04-01T11:25:06.506Z,101178.53
2023-04-01T11:28:07.152Z,101184.53
2023-04-01T11:31:01.137Z,101184.47
2023-04-01T11:33:36.798Z,101193.13
2023-04-01T11:36:23.670Z,101183.72
2023-04-01T11:39:13.745Z,101189.94
2023-04-01T11:41:48.417Z,101192.91
2023-04-01T11:44:21.673Z,101186.97
2023-04-01T11:47:05.199Z,101183.28
2023-04-01T11:49:47.418Z,101186.88
2023-04-01T11:52:31.125Z,101171.13
2023-04-01T11:55:18.959Z,101174.91
2023-04-01T11:58:11.253Z,101188.91
2023-04-01T12:01:09.072Z,101195.50
2023-04-01T12:03:53.992Z,101196.00
2023-04-01T12:06:32.538Z,101113.50
2023-04-01T12:09:10.127Z,101201.47
2023-04-01T12:11:53.099Z,101159.13
2023-04-01T12:14:30.487Z,101211.91
2023-04-01T12:17:10.451Z,101192.06
2023-04-01T12:19:45.928Z,101196.44
2023-04-01T12:22:34.023Z,101201.72
2023-04-01T12:25:19.673Z,101204.91
2023-04-01T12:28:04.063Z,101198.72
2023-04-01T12:30:51.006Z,101227.63
2023-04-01T12:33:46.932Z,101236.41
2023-04-01T12:36:34.667Z,101238.34
2023-04-01T12:39:21.983Z,101225.22
2023-04-01T12:41:57.735Z,101238.44
2023-04-01T12:44:52.713Z,101227.75
2023-04-01T12:47:43.252Z,101224.25
2023-04-01T12:50:33.640Z,101248.28
2023-04-01T12:53:19.941Z,101243.59
2023-04-01T12:55:51.740Z,101245.22
2023-04-01T12:59:04.218Z,101251.56
2023-04-01T13:01:52.783Z,101255.19
2023-04-01T13:04:57.222Z,101266.63
2023-04-01T13:07:35.875Z,101278.81
2023-04-01T13:10:15.921Z,101266.53
2023-04-01T13:13:13.799Z,101263.06
2023-04-01T13:15:47.544Z,101268.34
2023-04-01T13:18:27.833Z,101261.44
2023-04-01T13:21:11.416Z,101290.09
2023-04-01T13:23:52.837Z,101265.66
2023-04-01T13:26:27.691Z,101273.34
2023-04-01T13:29:06.815Z,101277.22
2023-04-01T13:31:57.885Z,101277.25
2023-04-01T13:34:38.123Z,101277.22
2023-04-01T13:37:20.168Z,101289.22
2023-04-01T13:39:59.184Z,101281.56
2023-04-01T13:42:32.534Z,101285.81
2023-04-01T13:45:14.744Z,101295.44
2023-04-01T13:48:28.959Z,101317.53
2023-04-01T13:51:14.316Z,101297.72
2023-04-01T13:54:05.941Z,101297.78
2023-04-01T13:56:40.633Z,101315.09
2023-04-01T13:59:39.046Z,101316.75
2023-04-01T14:02:23.985Z,101287.25
2023-04-01T14:05:11.883Z,101304.94
2023-04-01T14:07:56.517Z,101299.88
2023-04-01T14:10:36.306Z,101275.06
2023-04-01T14:13:12.157Z,101317.22
2023-04-01T14:15:58.013Z,101317.19
2023-04-01T14:18:52.164Z,101308.25
2023-04-01T14:21:29.806Z,101316.03
2023-04-01T14:24:11.605Z,101330.34
2023-04-01T14:27:15.223Z,101333.19
2023-04-01T14:30:02.493Z,101301.00
2023-04-01T14:32:41.266Z,101338.63
2023-04-01T14:35:27.726Z,101341.34
2023-04-01T14:38:28.914Z,101335.44
2023-04-01T14:41:02.663Z,101343.22
2023-04-01T14:43:49.796Z,101348.03
2023-04-01T14:47:06.767Z,101347.31
2023-04-01T14:49:38.809Z,101354.22
2023-04-01T14:52:12.493Z,101354.00
2023-04-01T14:54:47.342Z,101360.72
2023-04-01T14:57:18.173Z,101361.47
2023-04-01T14:59:51.091Z,101358.50
2023-04-01T15:02:47.574Z,101375.63
2023-04-01T15:05:38.305Z,101361.94
2023-04-01T15:08:18.455Z,101374.94
2023-04-01T15:11:23.168Z,101362.09
2023-04-01T15:14:21.621Z,101383.72
2023-04-01T15:17:07.538Z,101386.25
2023-04-01T15:19:49.204Z,101382.53
2023-04-01T15:22:49.969Z,101396.19
2023-04-01T15:25:44.211Z,101399.16
2023-04-01T15:28:26.522Z,101397.94
2023-04-01T15:31:00.227Z,101406.56
2023-04-01T15:33:45.288Z,101416.03
2023-04-01T15:36:26.772Z,101415.84
2023-04-01T15:39:06.280Z,101408.00
2023-04-01T15:41:48.203Z,101419.72
2023-04-01T15:44:48.800Z,101417.81
2023-04-01T15:47:36.094Z,101401.53
2023-04-01T15:50:38.640Z,101432.66
2023-04-01T15:53:21.172Z,101401.56
2023-04-01T15:55:58.749Z,101428.91
2023-04-01T15:58:44.047Z,101437.78
2023-04-01T16:01:26.528Z,101438.38
2023-04-01T16:04:09.142Z,101453.47
2023-04-01T16:06:53.468Z,101394.94
2023-04-01T16:09:46.117Z,101451.53
2023-04-01T16:12:23.106Z,101410.81
2023-04-01T16:15:06.699Z,101390.16
2023-04-01T16:18:05.789Z,101467.84
2023-04-01T16:20:51.431Z,101465.69
2023-04-01T16:23:31.384Z,101426.53
2023-04-01T16:26:08.268Z,101476.09
2023-04-01T16:28:47.118Z,101464.88
2023-04-01T16:31:26.525Z,101466.28
2023-04-01T16:34:01.083Z,101449.44
2023-04-01T16:36:35.765Z,101454.44
2023-04-01T16:39:29.884Z,101494.91
2023-04-01T16:42:24.813Z,101504.97
2023-04-01T16:45:02.253Z,101496.75
2023-04-01T16:47:39.423Z,101503.06
2023-04-01T16:50:17.050Z,101507.44
2023-04-01T16:53:01.148Z,101497.09
2023-04-01T16:55:43.760Z,101523.69
2023-04-01T16:58:16.804Z,101524.41
2023-04-01T17:00:52.998Z,101532.72
2023-04-01T17:03:28.565Z,101556.91
2023-04-01T17:06:13.536Z,101558.00
2023-04-01T17:08:58.563Z,101544.03
2023-04-01T17:11:30.144Z,101578.25
2023-04-01T17:14:15.466Z,101569.56
2023-04-01T17:17:29.461Z,101584.25
2023-04-01T17:20:14.323Z,101569.22
2023-04-01T17:22:51.055Z,101573.06
2023-04-01T17:25:31.973Z,101599.19
2023-04-01T17:28:07.897Z,101552.66
2023-04-01T17:30:39.654Z,101600.88
2023-04-01T17:33:39.291Z,101533.97
2023-04-01T17:36:19.159Z,101620.78
2023-04-01T17:39:08.524Z,101501.53
2023-04-01T17:41:49.863Z,101594.94
2023-04-01T17:44:31.209Z,101608.56
2023-04-01T17:47:13.846Z,101633.13
2023-04-01T17:49:52.345Z,101641.84
2023-04-01T17:52:30.344Z,101636.34
2023-04-01T17:55:07.613Z,101593.03
2023-04-01T17:57:49.614Z,101650.19
2023-04-01T18:00:26.293Z,101662.81
2023-04-01T18:03:08.860Z,101646.59
2023-04-01T18:05:53.638Z,101632.50
2023-04-01T18:08:37.462Z,101675.72
2023-04-01T18:11:19.656Z,101647.34
2023-04-01T18:14:22.072Z,101684.34
2023-04-01T18:17:05.919Z,101685.31
2023-04-01T18:19:46.433Z,101702.84
2023-04-01T18:22:26.350Z,101708.91
2023-04-01T18:25:03.911Z,101702.84
2023-04-01T18:27:38.841Z,101712.38
2023-04-01T18:30:16.300Z,101713.13
2023-04-01T18:32:51.226Z,101718.34
2023-04-01T18:35:27.980Z,101712.66
2023-04-01T18:38:06.288Z,101705.75
2023-04-01T18:40:39.125Z,101729.69
2023-04-01T18:43:22.810Z,101723.59
2023-04-01T18:45:57.561Z,101741.94
2023-04-01T18:48:44.988Z,101754.25
2023-04-01T18:51:19.941Z,101742.41
2023-04-01T18:53:59.130Z,101760.00
2023-04-01T18:56:32.653Z,101755.75
2023-04-01T18:59:13.791Z,101766.22
2023-04-01T19:01:50.619Z,101768.84
2023-04-01T19:04:44.207Z,101766.47
2023-04-01T19:07:44.156Z,101768.34
2023-04-01T19:10:22.374Z,101778.59
2023-04-01T19:13:00.239Z,101777.84
2023-04-01T19:15:36.439Z,101787.47
2023-04-01T19:18:27.908Z,101790.66
2023-04-01T19:21:03.812Z,101790.81
2023-04-01T19:24:07.398Z,101793.28
2023-04-01T19:26:40.248Z,101808.16
2023-04-01T19:29:20.671Z,101801.03
2023-04-01T19:32:01.855Z,101811.00
2023-04-01T19:34:40.679Z,101817.03
2023-04-01T19:37:21.328Z,101812.81
2023-04-01T19:40:00.502Z,101829.63
2023-04-01T19:42:39.255Z,101808.38
2023-04-01T19:45:26.540Z,101824.47
2023-04-01T19:48:02.895Z,101845.06
2023-04-01T19:50:38.108Z,101832.31
2023-04-01T19:53:21.029Z,101819.47
2023-04-01T19:55:59.259Z,101845.88
2023-04-01T19:58:36.577Z,101789.03
2023-04-01T20:01:06.960Z,101868.56
2023-04-01T20:03:44.898Z,101852.59
2023-04-01T20:06:21.455Z,101870.13
2023-04-01T20:09:00.410Z,101873.53
2023-04-01T20:11:40.261Z,101871.53
2023-04-01T20:14:22.040Z,101860.66
2023-04-01T20:17:01.452Z,101882.84
2023-04-01T20:19:36.060Z,101886.34
2023-04-01T20:22:10.765Z,101892.38
2023-04-01T20:24:44.614Z,101879.91
2023-04-01T20:27:22.007Z,101885.22
2023-04-01T20:30:07.443Z,101899.94
2023-04-01T20:32:51.468Z,101899.78
2023-04-01T20:35:34.713Z,101888.88
2023-04-01T20:38:26.751Z,101903.13
2023-04-01T20:41:01.801Z,101911.00
2023-04-01T20:44:14.166Z,101876.69
2023-04-01T20:46:54.428Z,101934.41
2023-04-01T20:49:42.134Z,101930.56
2023-04-01T20:52:28.650Z,101945.66
2023-04-01T20:55:26.428Z,101934.44
2023-04-01T20:58:09.057Z,101931.09
2023-04-01T21:00:56.260Z,101949.13
2023-04-01T21:03:39.587Z,101953.28
2023-04-01T21:06:29.456Z,101956.84
2023-04-01T21:09:21.114Z,101964.22
2023-04-01T21:11:58.743Z,101953.75
2023-04-01T21:15:02.482Z,101932.47
2023-04-01T21:17:42.086Z,101979.66
2023-04-01T21:20:43.218Z,101995.94
2023-04-01T21:23:45.980Z,101909.97
2023-04-01T21:26:50.345Z,101996.75
2023-04-01T21:29:50.070Z,101993.00
2023-04-01T21:32:34.077Z,101891.44
2023-04-01T21:35:09.451Z,102010.75
2023-04-01T21:38:06.232Z,102001.69
2023-04-01T21:41:05.108Z,102006.72
2023-04-01T21:44:15.422Z,102012.25
2023-04-01T21:47:25.869Z,102020.22
2023-04-01T21:50:42.331Z,102000.72
2023-04-01T21:54:02.394Z,102023.59
2023-04-01T21:57:00.272Z,102024.66
2023-04-01T21:59:50.768Z,101984.63
2023-04-01T22:02:54.442Z,102034.25
2023-04-01T22:05:27.235Z,102036.47
2023-04-01T22:08:06.724Z,102040.06
2023-04-01T22:10:43.806Z,102029.31
2023-04-01T22:13:18.571Z,102057.53
2023-04-01T22:16:02.014Z,102054.28
2023-04-01T22:18:36.459Z,102057.72
2023-04-01T22:21:11.725Z,102063.41
2023-04-01T22:23:46.952Z,102054.84
2023-04-01T22:26:25.871Z,102069.50
2023-04-01T22:29:01.564Z,102034.28
2023-04-01T22:31:36.029Z,102060.16
2023-04-01T22:34:12.653Z,102071.66
2023-04-01T22:36:53.502Z,102067.09
2023-04-01T22:39:36.030Z,102084.88
2023-04-01T22:42:17.996Z,102079.50
2023-04-01T22:45:00.227Z,102080.38
2023-04-01T22:47:40.897Z,102090.13
2023-04-01T22:50:19.901Z,102079.69
2023-04-01T22:52:49.733Z,102039.47
2023-04-01T22:55:22.740Z,102089.03
2023-04-01T22:57:56.418Z,102102.00
2023-04-01T23:00:28.992Z,102096.25
2023-04-01T23:03:14.067Z,102110.69
2023-04-01T23:05:49.390Z,102113.50
2023-04-01T23:08:56.055Z,102112.97
2023-04-01T23:11:28.716Z,102123.53
2023-04-01T23:14:20.431Z,102122.97
2023-04-01T23:16:54.861Z,102135.41
2023-04-01T23:19:27.513Z,102100.19
2023-04-01T23:22:07.977Z,102127.75
2023-04-01T23:24:41.130Z,102131.44
2023-04-01T23:27:16.038Z,102134.66
2023-04-01T23:29:45.990Z,102139.09
2023-04-01T23:32:19.723Z,102122.38
2023-04-01T23:34:51.152Z,102143.88
2023-04-01T23:37:21.172Z,102142.69
2023-04-01T23:39:52.550Z,102144.84
2023-04-01T23:42:23.974Z,102155.41
2023-04-01T23:44:56.384Z,102145.69
2023-04-01T23:47:27.133Z,102164.31
2023-04-01T23:49:58.330Z,102149.84
2023-04-01T23:52:29.001Z,102167.41
2023-04-01T23:55:01.416Z,102140.44
2023-04-01T23:57:33.229Z,102184.59
